sensor_id;sensor_type;location;lat;lon;timestamp;P1;durP1;ratioP1;P2;durP2;ratioP2
18568;SDS011;14780;48.316;-1.050;2023-06-14T00:01:29;18.08;;;11.35;;
18568;SDS011;14780;48.316;-1.050;2023-06-14T00:04:18;16.65;;;12.07;;
18568;SDS011;14780;48.316;-1.050;2023-06-14T00:07:04;14.02;;;10.75;;
18568;SDS011;14780;48.316;-1.050;2023-06-14T00:09:52;15.38;;;11.02;;
18568;SDS011;14780;48.316;-1.050;2023-06-14T00:12:37;15.25;;;10.48;;
18568;SDS011;14780;48.316;-1.050;2023-06-14T00:15:22;13.02;;;10.38;;
18568;SDS011;14780;48.316;-1.050;2023-06-14T00:18:07;13.63;;;10.10;;
18568;SDS011;14780;48.316;-1.050;2023-06-14T00:20:55;14.48;;;10.10;;
18568;SDS011;14780;48.316;-1.050;2023-06-14T00:23:40;11.50;;;9.68;;
18568;SDS011;14780;48.316;-1.050;2023-06-14T00:26:25;13.77;;;9.98;;
18568;SDS011;14780;48.316;-1.050;2023-06-14T00:29:10;13.45;;;9.90;;
18568;SDS011;14780;48.316;-1.050;2023-06-14T00:31:54;13.15;;;10.18;;
18568;SDS011;14780;48.316;-1.050;2023-06-14T00:34:39;13.68;;;9.40;;
18568;SDS011;14780;48.316;-1.050;2023-06-14T00:37:24;12.38;;;10.10;;
18568;SDS011;14780;48.316;-1.050;2023-06-14T00:40:08;12.20;;;9.55;;
18568;SDS011;14780;48.316;-1.050;2023-06-14T00:42:53;12.68;;;9.60;;
18568;SDS011;14780;48.316;-1.050;2023-06-14T00:45:38;11.73;;;9.02;;
18568;SDS011;14780;48.316;-1.050;2023-06-14T00:48:23;12.20;;;8.82;;
18568;SDS011;14780;48.316;-1.050;2023-06-14T00:51:09;11.60;;;9.30;;
18568;SDS011;14780;48.316;-1.050;2023-06-14T00:53:54;11.88;;;9.15;;
18568;SDS011;14780;48.316;-1.050;2023-06-14T00:56:39;12.52;;;9.25;;
18568;SDS011;14780;48.316;-1.050;2023-06-14T00:59:27;12.15;;;9.23;;
18568;SDS011;14780;48.316;-1.050;2023-06-14T01:02:12;12.52;;;9.20;;
18568;SDS011;14780;48.316;-1.050;2023-06-14T01:05:01;12.07;;;9.40;;
18568;SDS011;14780;48.316;-1.050;2023-06-14T01:10:49;9.77;;;7.93;;
18568;SDS011;14780;48.316;-1.050;2023-06-14T01:13:38;10.23;;;8.05;;
18568;SDS011;14780;48.316;-1.050;2023-06-14T01:16:26;12.00;;;8.57;;
18568;SDS011;14780;48.316;-1.050;2023-06-14T01:19:12;10.00;;;8.40;;
18568;SDS011;14780;48.316;-1.050;2023-06-14T01:21:57;12.07;;;8.70;;
18568;SDS011;14780;48.316;-1.050;2023-06-14T01:24:45;9.80;;;7.68;;
18568;SDS011;14780;48.316;-1.050;2023-06-14T01:27:30;10.65;;;8.70;;
18568;SDS011;14780;48.316;-1.050;2023-06-14T01:30:16;10.55;;;7.25;;
18568;SDS011;14780;48.316;-1.050;2023-06-14T01:33:04;10.45;;;8.05;;
18568;SDS011;14780;48.316;-1.050;2023-06-14T01:35:49;9.35;;;7.97;;
18568;SDS011;14780;48.316;-1.050;2023-06-14T01:38:35;11.30;;;7.72;;
18568;SDS011;14780;48.316;-1.050;2023-06-14T01:41:21;10.05;;;7.70;;
18568;SDS011;14780;48.316;-1.050;2023-06-14T01:44:06;11.35;;;7.93;;
18568;SDS011;14780;48.316;-1.050;2023-06-14T01:46:52;11.38;;;8.10;;
18568;SDS011;14780;48.316;-1.050;2023-06-14T01:49:38;9.00;;;7.50;;
18568;SDS011;14780;48.316;-1.050;2023-06-14T01:52:23;10.23;;;8.27;;
18568;SDS011;14780;48.316;-1.050;2023-06-14T01:55:08;10.18;;;7.30;;
18568;SDS011;14780;48.316;-1.050;2023-06-14T01:57:53;11.30;;;8.30;;
18568;SDS011;14780;48.316;-1.050;2023-06-14T02:00:38;11.10;;;7.70;;
18568;SDS011;14780;48.316;-1.050;2023-06-14T02:03:23;8.00;;;6.95;;
18568;SDS011;14780;48.316;-1.050;2023-06-14T02:06:08;10.10;;;7.80;;
18568;SDS011;14780;48.316;-1.050;2023-06-14T02:08:53;10.52;;;7.30;;
18568;SDS011;14780;48.316;-1.050;2023-06-14T02:11:38;10.13;;;7.93;;
18568;SDS011;14780;48.316;-1.050;2023-06-14T02:14:23;10.68;;;7.72;;
18568;SDS011;14780;48.316;-1.050;2023-06-14T02:17:07;8.80;;;7.60;;
18568;SDS011;14780;48.316;-1.050;2023-06-14T02:19:52;9.48;;;7.60;;
18568;SDS011;14780;48.316;-1.050;2023-06-14T02:22:37;8.95;;;7.50;;
18568;SDS011;14780;48.316;-1.050;2023-06-14T02:25:21;9.43;;;7.10;;
18568;SDS011;14780;48.316;-1.050;2023-06-14T02:28:06;9.75;;;7.68;;
18568;SDS011;14780;48.316;-1.050;2023-06-14T02:30:50;10.15;;;7.68;;
18568;SDS011;14780;48.316;-1.050;2023-06-14T02:33:35;8.13;;;6.97;;
18568;SDS011;14780;48.316;-1.050;2023-06-14T02:36:20;8.65;;;7.30;;
18568;SDS011;14780;48.316;-1.050;2023-06-14T02:39:04;8.27;;;7.35;;
18568;SDS011;14780;48.316;-1.050;2023-06-14T02:41:49;11.85;;;7.63;;
18568;SDS011;14780;48.316;-1.050;2023-06-14T02:44:34;7.90;;;7.10;;
18568;SDS011;14780;48.316;-1.050;2023-06-14T02:47:19;9.20;;;7.30;;
18568;SDS011;14780;48.316;-1.050;2023-06-14T02:50:04;9.00;;;7.63;;
18568;SDS011;14780;48.316;-1.050;2023-06-14T02:52:50;10.40;;;6.97;;
18568;SDS011;14780;48.316;-1.050;2023-06-14T02:55:36;9.20;;;7.32;;
18568;SDS011;14780;48.316;-1.050;2023-06-14T02:58:23;8.77;;;7.35;;
18568;SDS011;14780;48.316;-1.050;2023-06-14T03:01:08;7.75;;;6.85;;
18568;SDS011;14780;48.316;-1.050;2023-06-14T03:03:56;8.95;;;7.45;;
18568;SDS011;14780;48.316;-1.050;2023-06-14T03:06:41;8.82;;;7.40;;
18568;SDS011;14780;48.316;-1.050;2023-06-14T03:09:27;7.93;;;6.53;;
18568;SDS011;14780;48.316;-1.050;2023-06-14T03:12:12;8.23;;;6.93;;
18568;SDS011;14780;48.316;-1.050;2023-06-14T03:14:58;8.77;;;6.80;;
18568;SDS011;14780;48.316;-1.050;2023-06-14T03:17:48;8.85;;;7.13;;
18568;SDS011;14780;48.316;-1.050;2023-06-14T03:20:33;7.60;;;6.75;;
18568;SDS011;14780;48.316;-1.050;2023-06-14T03:23:17;9.10;;;6.85;;
18568;SDS011;14780;48.316;-1.050;2023-06-14T03:26:02;7.78;;;6.75;;
18568;SDS011;14780;48.316;-1.050;2023-06-14T03:28:47;7.97;;;6.43;;
18568;SDS011;14780;48.316;-1.050;2023-06-14T03:31:34;9.65;;;7.35;;
18568;SDS011;14780;48.316;-1.050;2023-06-14T03:34:19;13.63;;;6.95;;
18568;SDS011;14780;48.316;-1.050;2023-06-14T03:37:04;9.93;;;7.03;;
18568;SDS011;14780;48.316;-1.050;2023-06-14T03:39:49;10.38;;;7.07;;
18568;SDS011;14780;48.316;-1.050;2023-06-14T03:42:34;9.30;;;7.22;;
18568;SDS011;14780;48.316;-1.050;2023-06-14T03:45:18;8.43;;;7.50;;
18568;SDS011;14780;48.316;-1.050;2023-06-14T03:48:04;9.35;;;7.25;;
18568;SDS011;14780;48.316;-1.050;2023-06-14T03:50:50;8.27;;;6.57;;
18568;SDS011;14780;48.316;-1.050;2023-06-14T03:53:35;8.13;;;6.57;;
18568;SDS011;14780;48.316;-1.050;2023-06-14T03:56:20;8.50;;;6.68;;
18568;SDS011;14780;48.316;-1.050;2023-06-14T03:59:05;8.32;;;7.20;;
18568;SDS011;14780;48.316;-1.050;2023-06-14T04:01:49;8.75;;;6.40;;
18568;SDS011;14780;48.316;-1.050;2023-06-14T04:04:34;8.93;;;7.07;;
18568;SDS011;14780;48.316;-1.050;2023-06-14T04:07:20;7.60;;;6.28;;
18568;SDS011;14780;48.316;-1.050;2023-06-14T04:10:05;8.50;;;7.13;;
18568;SDS011;14780;48.316;-1.050;2023-06-14T04:12:51;8.48;;;6.47;;
18568;SDS011;14780;48.316;-1.050;2023-06-14T04:15:36;7.63;;;6.65;;
18568;SDS011;14780;48.316;-1.050;2023-06-14T04:18:25;7.75;;;6.78;;
18568;SDS011;14780;48.316;-1.050;2023-06-14T04:21:10;8.35;;;6.38;;
18568;SDS011;14780;48.316;-1.050;2023-06-14T04:23:54;8.25;;;7.13;;
18568;SDS011;14780;48.316;-1.050;2023-06-14T04:26:39;7.35;;;6.10;;
18568;SDS011;14780;48.316;-1.050;2023-06-14T04:29:28;7.63;;;6.63;;
18568;SDS011;14780;48.316;-1.050;2023-06-14T04:32:13;8.15;;;6.80;;
18568;SDS011;14780;48.316;-1.050;2023-06-14T04:34:59;8.18;;;6.82;;
18568;SDS011;14780;48.316;-1.050;2023-06-14T04:37:45;8.35;;;6.50;;
18568;SDS011;14780;48.316;-1.050;2023-06-14T04:40:30;7.72;;;6.57;;
18568;SDS011;14780;48.316;-1.050;2023-06-14T04:43:17;7.85;;;6.50;;
18568;SDS011;14780;48.316;-1.050;2023-06-14T04:46:02;7.18;;;5.88;;
18568;SDS011;14780;48.316;-1.050;2023-06-14T04:48:54;8.00;;;6.60;;
18568;SDS011;14780;48.316;-1.050;2023-06-14T04:51:38;7.57;;;6.28;;
18568;SDS011;14780;48.316;-1.050;2023-06-14T04:54:23;7.07;;;6.07;;
18568;SDS011;14780;48.316;-1.050;2023-06-14T04:57:11;7.75;;;6.57;;
18568;SDS011;14780;48.316;-1.050;2023-06-14T05:00:00;7.35;;;6.60;;
18568;SDS011;14780;48.316;-1.050;2023-06-14T05:02:48;8.55;;;7.00;;
18568;SDS011;14780;48.316;-1.050;2023-06-14T05:05:34;8.25;;;6.65;;
18568;SDS011;14780;48.316;-1.050;2023-06-14T05:08:20;8.85;;;6.43;;
18568;SDS011;14780;48.316;-1.050;2023-06-14T05:11:09;8.20;;;6.72;;
18568;SDS011;14780;48.316;-1.050;2023-06-14T05:13:54;7.57;;;6.43;;
18568;SDS011;14780;48.316;-1.050;2023-06-14T05:16:39;8.20;;;6.82;;
18568;SDS011;14780;48.316;-1.050;2023-06-14T05:19:24;8.23;;;6.57;;
18568;SDS011;14780;48.316;-1.050;2023-06-14T05:22:10;7.15;;;6.35;;
18568;SDS011;14780;48.316;-1.050;2023-06-14T05:24:55;7.80;;;6.78;;
18568;SDS011;14780;48.316;-1.050;2023-06-14T05:27:40;8.57;;;6.28;;
18568;SDS011;14780;48.316;-1.050;2023-06-14T05:30:25;7.50;;;6.30;;
18568;SDS011;14780;48.316;-1.050;2023-06-14T05:33:10;8.07;;;6.63;;
18568;SDS011;14780;48.316;-1.050;2023-06-14T05:35:55;7.45;;;6.20;;
18568;SDS011;14780;48.316;-1.050;2023-06-14T05:38:40;7.05;;;6.32;;
18568;SDS011;14780;48.316;-1.050;2023-06-14T05:41:28;7.53;;;6.70;;
18568;SDS011;14780;48.316;-1.050;2023-06-14T05:44:13;7.70;;;6.55;;
18568;SDS011;14780;48.316;-1.050;2023-06-14T05:46:58;8.05;;;6.43;;
18568;SDS011;14780;48.316;-1.050;2023-06-14T05:49:43;9.73;;;7.82;;
18568;SDS011;14780;48.316;-1.050;2023-06-14T05:52:28;11.00;;;8.10;;
18568;SDS011;14780;48.316;-1.050;2023-06-14T05:55:13;11.90;;;7.72;;
18568;SDS011;14780;48.316;-1.050;2023-06-14T05:57:59;12.88;;;8.38;;
18568;SDS011;14780;48.316;-1.050;2023-06-14T06:00:45;9.88;;;8.63;;
18568;SDS011;14780;48.316;-1.050;2023-06-14T06:03:30;11.70;;;9.05;;
18568;SDS011;14780;48.316;-1.050;2023-06-14T06:06:15;10.95;;;8.10;;
18568;SDS011;14780;48.316;-1.050;2023-06-14T06:09:00;12.75;;;9.15;;
18568;SDS011;14780;48.316;-1.050;2023-06-14T06:11:44;13.70;;;8.70;;
18568;SDS011;14780;48.316;-1.050;2023-06-14T06:14:29;16.20;;;10.73;;
18568;SDS011;14780;48.316;-1.050;2023-06-14T06:17:14;14.50;;;10.55;;
18568;SDS011;14780;48.316;-1.050;2023-06-14T06:19:58;14.18;;;9.77;;
18568;SDS011;14780;48.316;-1.050;2023-06-14T06:22:43;14.88;;;9.70;;
18568;SDS011;14780;48.316;-1.050;2023-06-14T06:25:28;13.35;;;9.02;;
18568;SDS011;14780;48.316;-1.050;2023-06-14T06:28:15;21.52;;;10.38;;
18568;SDS011;14780;48.316;-1.050;2023-06-14T06:30:59;15.52;;;9.88;;
18568;SDS011;14780;48.316;-1.050;2023-06-14T06:33:44;13.90;;;9.85;;
18568;SDS011;14780;48.316;-1.050;2023-06-14T06:36:28;12.15;;;9.15;;
18568;SDS011;14780;48.316;-1.050;2023-06-14T06:39:17;12.10;;;9.13;;
18568;SDS011;14780;48.316;-1.050;2023-06-14T06:42:01;12.63;;;9.40;;
18568;SDS011;14780;48.316;-1.050;2023-06-14T06:44:47;10.77;;;8.57;;
18568;SDS011;14780;48.316;-1.050;2023-06-14T06:47:31;11.68;;;9.02;;
18568;SDS011;14780;48.316;-1.050;2023-06-14T06:50:17;10.70;;;9.27;;
18568;SDS011;14780;48.316;-1.050;2023-06-14T06:53:02;10.98;;;9.55;;
18568;SDS011;14780;48.316;-1.050;2023-06-14T06:55:48;17.17;;;9.35;;
18568;SDS011;14780;48.316;-1.050;2023-06-14T06:58:33;10.60;;;8.45;;
18568;SDS011;14780;48.316;-1.050;2023-06-14T07:01:18;10.90;;;8.63;;
18568;SDS011;14780;48.316;-1.050;2023-06-14T07:04:03;11.82;;;9.68;;
18568;SDS011;14780;48.316;-1.050;2023-06-14T07:06:48;14.52;;;8.90;;
18568;SDS011;14780;48.316;-1.050;2023-06-14T07:09:33;11.32;;;9.13;;
18568;SDS011;14780;48.316;-1.050;2023-06-14T07:12:17;12.05;;;8.50;;
18568;SDS011;14780;48.316;-1.050;2023-06-14T07:15:02;12.57;;;8.77;;
18568;SDS011;14780;48.316;-1.050;2023-06-14T07:17:47;13.73;;;10.00;;
18568;SDS011;14780;48.316;-1.050;2023-06-14T07:20:32;13.63;;;9.73;;
18568;SDS011;14780;48.316;-1.050;2023-06-14T07:23:16;12.57;;;9.98;;
18568;SDS011;14780;48.316;-1.050;2023-06-14T07:26:01;12.57;;;10.60;;
18568;SDS011;14780;48.316;-1.050;2023-06-14T07:28:46;14.70;;;11.10;;
18568;SDS011;14780;48.316;-1.050;2023-06-14T07:31:32;13.25;;;10.60;;
18568;SDS011;14780;48.316;-1.050;2023-06-14T07:34:16;13.43;;;11.35;;
18568;SDS011;14780;48.316;-1.050;2023-06-14T07:37:01;13.20;;;10.63;;
18568;SDS011;14780;48.316;-1.050;2023-06-14T07:39:46;12.95;;;11.10;;
18568;SDS011;14780;48.316;-1.050;2023-06-14T07:42:31;16.05;;;11.57;;
18568;SDS011;14780;48.316;-1.050;2023-06-14T07:45:17;15.80;;;10.98;;
18568;SDS011;14780;48.316;-1.050;2023-06-14T07:48:03;15.15;;;10.50;;
18568;SDS011;14780;48.316;-1.050;2023-06-14T07:50:48;14.45;;;11.82;;
18568;SDS011;14780;48.316;-1.050;2023-06-14T07:53:32;15.13;;;10.90;;
18568;SDS011;14780;48.316;-1.050;2023-06-14T07:56:17;13.20;;;10.63;;
18568;SDS011;14780;48.316;-1.050;2023-06-14T07:59:02;12.82;;;10.85;;
18568;SDS011;14780;48.316;-1.050;2023-06-14T08:01:47;15.05;;;12.05;;
18568;SDS011;14780;48.316;-1.050;2023-06-14T08:04:32;15.23;;;10.93;;
18568;SDS011;14780;48.316;-1.050;2023-06-14T08:07:17;14.48;;;10.63;;
18568;SDS011;14780;48.316;-1.050;2023-06-14T08:10:01;15.25;;;12.15;;
18568;SDS011;14780;48.316;-1.050;2023-06-14T08:12:46;16.60;;;13.60;;
18568;SDS011;14780;48.316;-1.050;2023-06-14T08:15:34;16.55;;;12.30;;
18568;SDS011;14780;48.316;-1.050;2023-06-14T08:18:19;16.10;;;11.82;;
18568;SDS011;14780;48.316;-1.050;2023-06-14T08:21:03;13.85;;;11.40;;
18568;SDS011;14780;48.316;-1.050;2023-06-14T08:23:48;14.75;;;11.88;;
18568;SDS011;14780;48.316;-1.050;2023-06-14T08:26:36;15.57;;;13.05;;
18568;SDS011;14780;48.316;-1.050;2023-06-14T08:29:22;17.95;;;11.82;;
18568;SDS011;14780;48.316;-1.050;2023-06-14T08:32:06;13.05;;;11.63;;
18568;SDS011;14780;48.316;-1.050;2023-06-14T08:34:52;16.65;;;13.88;;
18568;SDS011;14780;48.316;-1.050;2023-06-14T08:37:39;17.00;;;13.70;;
18568;SDS011;14780;48.316;-1.050;2023-06-14T08:40:27;14.88;;;12.55;;
18568;SDS011;14780;48.316;-1.050;2023-06-14T08:43:14;19.23;;;13.88;;
18568;SDS011;14780;48.316;-1.050;2023-06-14T08:46:00;17.52;;;13.60;;
18568;SDS011;14780;48.316;-1.050;2023-06-14T08:48:48;14.63;;;12.00;;
18568;SDS011;14780;48.316;-1.050;2023-06-14T08:51:35;15.77;;;12.32;;
18568;SDS011;14780;48.316;-1.050;2023-06-14T08:54:21;16.48;;;12.00;;
18568;SDS011;14780;48.316;-1.050;2023-06-14T08:57:08;15.77;;;11.85;;
18568;SDS011;14780;48.316;-1.050;2023-06-14T09:00:00;18.13;;;15.80;;
18568;SDS011;14780;48.316;-1.050;2023-06-14T09:02:53;19.55;;;15.50;;
18568;SDS011;14780;48.316;-1.050;2023-06-14T09:05:41;18.88;;;14.57;;
18568;SDS011;14780;48.316;-1.050;2023-06-14T09:08:28;22.05;;;16.77;;
18568;SDS011;14780;48.316;-1.050;2023-06-14T09:11:17;20.17;;;15.80;;
18568;SDS011;14780;48.316;-1.050;2023-06-14T09:14:02;21.23;;;15.88;;
18568;SDS011;14780;48.316;-1.050;2023-06-14T09:16:47;22.17;;;15.18;;
18568;SDS011;14780;48.316;-1.050;2023-06-14T09:19:35;17.38;;;13.95;;
18568;SDS011;14780;48.316;-1.050;2023-06-14T09:22:21;16.00;;;13.95;;
18568;SDS011;14780;48.316;-1.050;2023-06-14T09:25:05;16.27;;;13.77;;
18568;SDS011;14780;48.316;-1.050;2023-06-14T09:27:51;17.65;;;13.93;;
18568;SDS011;14780;48.316;-1.050;2023-06-14T09:30:37;16.52;;;12.70;;
18568;SDS011;14780;48.316;-1.050;2023-06-14T09:33:22;15.88;;;12.55;;
18568;SDS011;14780;48.316;-1.050;2023-06-14T09:36:09;15.65;;;12.07;;
18568;SDS011;14780;48.316;-1.050;2023-06-14T09:39:00;14.23;;;11.13;;
18568;SDS011;14780;48.316;-1.050;2023-06-14T09:41:49;14.48;;;10.43;;
18568;SDS011;14780;48.316;-1.050;2023-06-14T09:44:34;13.57;;;10.10;;
18568;SDS011;14780;48.316;-1.050;2023-06-14T09:47:19;16.65;;;9.70;;
18568;SDS011;14780;48.316;-1.050;2023-06-14T09:50:06;11.95;;;9.02;;
18568;SDS011;14780;48.316;-1.050;2023-06-14T09:52:51;13.48;;;9.02;;
18568;SDS011;14780;48.316;-1.050;2023-06-14T09:55:41;13.50;;;9.73;;
18568;SDS011;14780;48.316;-1.050;2023-06-14T09:58:26;10.43;;;8.70;;
18568;SDS011;14780;48.316;-1.050;2023-06-14T10:01:13;14.32;;;8.95;;
18568;SDS011;14780;48.316;-1.050;2023-06-14T10:04:02;13.27;;;9.40;;
18568;SDS011;14780;48.316;-1.050;2023-06-14T10:06:49;13.23;;;8.93;;
18568;SDS011;14780;48.316;-1.050;2023-06-14T10:09:35;11.70;;;9.35;;
18568;SDS011;14780;48.316;-1.050;2023-06-14T10:12:21;11.10;;;9.43;;
18568;SDS011;14780;48.316;-1.050;2023-06-14T10:15:07;11.02;;;8.98;;
18568;SDS011;14780;48.316;-1.050;2023-06-14T10:17:56;10.90;;;9.05;;
18568;SDS011;14780;48.316;-1.050;2023-06-14T10:23:52;12.48;;;9.40;;
18568;SDS011;14780;48.316;-1.050;2023-06-14T10:26:49;12.63;;;9.48;;
18568;SDS011;14780;48.316;-1.050;2023-06-14T10:30:01;14.80;;;8.98;;
18568;SDS011;14780;48.316;-1.050;2023-06-14T10:33:05;11.48;;;8.93;;
18568;SDS011;14780;48.316;-1.050;2023-06-14T10:36:01;13.27;;;9.23;;
18568;SDS011;14780;48.316;-1.050;2023-06-14T10:39:16;10.73;;;8.45;;
18568;SDS011;14780;48.316;-1.050;2023-06-14T10:42:01;9.95;;;8.30;;
18568;SDS011;14780;48.316;-1.050;2023-06-14T10:47:36;12.20;;;8.60;;
18568;SDS011;14780;48.316;-1.050;2023-06-14T10:50:27;12.40;;;8.73;;
18568;SDS011;14780;48.316;-1.050;2023-06-14T10:53:22;11.77;;;9.30;;
18568;SDS011;14780;48.316;-1.050;2023-06-14T10:56:12;13.85;;;9.40;;
18568;SDS011;14780;48.316;-1.050;2023-06-14T10:59:10;15.32;;;8.95;;
18568;SDS011;14780;48.316;-1.050;2023-06-14T11:01:57;12.20;;;9.18;;
18568;SDS011;14780;48.316;-1.050;2023-06-14T11:10:40;11.68;;;8.20;;
18568;SDS011;14780;48.316;-1.050;2023-06-14T11:13:25;13.52;;;9.13;;
18568;SDS011;14780;48.316;-1.050;2023-06-14T11:16:11;13.75;;;8.63;;
18568;SDS011;14780;48.316;-1.050;2023-06-14T11:19:00;11.07;;;8.27;;
18568;SDS011;14780;48.316;-1.050;2023-06-14T11:21:47;10.90;;;8.55;;
18568;SDS011;14780;48.316;-1.050;2023-06-14T11:24:32;11.88;;;8.73;;
18568;SDS011;14780;48.316;-1.050;2023-06-14T11:27:17;11.27;;;8.15;;
18568;SDS011;14780;48.316;-1.050;2023-06-14T11:30:02;10.65;;;8.40;;
18568;SDS011;14780;48.316;-1.050;2023-06-14T11:32:51;9.57;;;8.20;;
18568;SDS011;14780;48.316;-1.050;2023-06-14T11:35:37;11.77;;;8.25;;
18568;SDS011;14780;48.316;-1.050;2023-06-14T11:38:21;11.75;;;8.40;;
18568;SDS011;14780;48.316;-1.050;2023-06-14T11:41:06;10.02;;;7.90;;
18568;SDS011;14780;48.316;-1.050;2023-06-14T11:43:54;12.07;;;7.97;;
18568;SDS011;14780;48.316;-1.050;2023-06-14T11:46:39;9.95;;;7.45;;
18568;SDS011;14780;48.316;-1.050;2023-06-14T11:49:23;9.80;;;8.32;;
18568;SDS011;14780;48.316;-1.050;2023-06-14T11:52:10;10.93;;;8.07;;
18568;SDS011;14780;48.316;-1.050;2023-06-14T11:54:55;10.82;;;7.90;;
18568;SDS011;14780;48.316;-1.050;2023-06-14T11:57:40;10.23;;;7.72;;
18568;SDS011;14780;48.316;-1.050;2023-06-14T12:00:26;9.48;;;7.88;;
18568;SDS011;14780;48.316;-1.050;2023-06-14T12:03:12;9.43;;;8.13;;
18568;SDS011;14780;48.316;-1.050;2023-06-14T12:06:06;11.75;;;8.20;;
18568;SDS011;14780;48.316;-1.050;2023-06-14T12:08:55;11.05;;;8.32;;
18568;SDS011;14780;48.316;-1.050;2023-06-14T12:11:40;9.13;;;7.25;;
18568;SDS011;14780;48.316;-1.050;2023-06-14T12:14:31;9.38;;;7.90;;
18568;SDS011;14780;48.316;-1.050;2023-06-14T12:20:12;10.18;;;7.70;;
18568;SDS011;14780;48.316;-1.050;2023-06-14T12:23:02;10.32;;;8.20;;
18568;SDS011;14780;48.316;-1.050;2023-06-14T12:25:47;10.65;;;8.15;;
18568;SDS011;14780;48.316;-1.050;2023-06-14T12:28:33;8.95;;;7.20;;
18568;SDS011;14780;48.316;-1.050;2023-06-14T12:31:18;11.98;;;8.38;;
18568;SDS011;14780;48.316;-1.050;2023-06-14T12:34:03;8.77;;;7.20;;
18568;SDS011;14780;48.316;-1.050;2023-06-14T12:36:49;10.60;;;8.27;;
18568;SDS011;14780;48.316;-1.050;2023-06-14T12:39:34;11.57;;;8.15;;
18568;SDS011;14780;48.316;-1.050;2023-06-14T12:42:22;8.88;;;7.85;;
18568;SDS011;14780;48.316;-1.050;2023-06-14T12:45:07;8.73;;;7.30;;
18568;SDS011;14780;48.316;-1.050;2023-06-14T12:47:52;9.63;;;8.05;;
18568;SDS011;14780;48.316;-1.050;2023-06-14T12:50:37;10.52;;;8.00;;
18568;SDS011;14780;48.316;-1.050;2023-06-14T12:53:21;8.20;;;7.30;;
18568;SDS011;14780;48.316;-1.050;2023-06-14T12:56:06;11.05;;;7.72;;
18568;SDS011;14780;48.316;-1.050;2023-06-14T12:58:51;8.13;;;7.03;;
18568;SDS011;14780;48.316;-1.050;2023-06-14T13:01:37;10.73;;;7.88;;
18568;SDS011;14780;48.316;-1.050;2023-06-14T13:04:23;9.40;;;7.50;;
18568;SDS011;14780;48.316;-1.050;2023-06-14T13:07:07;9.82;;;7.18;;
18568;SDS011;14780;48.316;-1.050;2023-06-14T13:09:54;8.98;;;7.18;;
18568;SDS011;14780;48.316;-1.050;2023-06-14T13:12:39;10.43;;;7.07;;
18568;SDS011;14780;48.316;-1.050;2023-06-14T13:15:23;10.68;;;7.72;;
18568;SDS011;14780;48.316;-1.050;2023-06-14T13:18:08;9.43;;;7.15;;
18568;SDS011;14780;48.316;-1.050;2023-06-14T13:20:55;10.50;;;7.90;;
18568;SDS011;14780;48.316;-1.050;2023-06-14T13:23:40;7.82;;;6.65;;
18568;SDS011;14780;48.316;-1.050;2023-06-14T13:26:24;8.43;;;7.40;;
18568;SDS011;14780;48.316;-1.050;2023-06-14T13:29:10;7.93;;;6.93;;
18568;SDS011;14780;48.316;-1.050;2023-06-14T13:31:55;8.05;;;6.90;;
18568;SDS011;14780;48.316;-1.050;2023-06-14T13:34:40;9.13;;;7.43;;
18568;SDS011;14780;48.316;-1.050;2023-06-14T13:37:24;8.18;;;7.07;;
18568;SDS011;14780;48.316;-1.050;2023-06-14T13:40:09;7.63;;;6.80;;
18568;SDS011;14780;48.316;-1.050;2023-06-14T13:42:55;8.93;;;7.47;;
18568;SDS011;14780;48.316;-1.050;2023-06-14T13:45:39;7.43;;;6.68;;
18568;SDS011;14780;48.316;-1.050;2023-06-14T13:48:24;8.70;;;6.93;;
18568;SDS011;14780;48.316;-1.050;2023-06-14T13:51:08;7.88;;;6.68;;
18568;SDS011;14780;48.316;-1.050;2023-06-14T13:53:54;8.38;;;7.10;;
18568;SDS011;14780;48.316;-1.050;2023-06-14T13:56:39;10.48;;;7.60;;
18568;SDS011;14780;48.316;-1.050;2023-06-14T13:59:24;8.68;;;6.72;;
18568;SDS011;14780;48.316;-1.050;2023-06-14T14:02:10;8.55;;;7.32;;
18568;SDS011;14780;48.316;-1.050;2023-06-14T14:04:55;8.80;;;6.93;;
18568;SDS011;14780;48.316;-1.050;2023-06-14T14:07:41;7.85;;;6.90;;
18568;SDS011;14780;48.316;-1.050;2023-06-14T14:10:25;7.45;;;6.75;;
18568;SDS011;14780;48.316;-1.050;2023-06-14T14:13:10;7.95;;;6.78;;
18568;SDS011;14780;48.316;-1.050;2023-06-14T14:15:56;8.02;;;6.82;;
18568;SDS011;14780;48.316;-1.050;2023-06-14T14:18:41;7.70;;;6.78;;
18568;SDS011;14780;48.316;-1.050;2023-06-14T14:21:25;9.35;;;7.13;;
18568;SDS011;14780;48.316;-1.050;2023-06-14T14:24:10;7.43;;;6.63;;
18568;SDS011;14780;48.316;-1.050;2023-06-14T14:26:55;8.00;;;6.40;;
18568;SDS011;14780;48.316;-1.050;2023-06-14T14:29:43;7.30;;;6.30;;
18568;SDS011;14780;48.316;-1.050;2023-06-14T14:32:27;8.13;;;6.20;;
18568;SDS011;14780;48.316;-1.050;2023-06-14T14:35:12;8.70;;;7.07;;
18568;SDS011;14780;48.316;-1.050;2023-06-14T14:37:57;8.32;;;6.93;;
18568;SDS011;14780;48.316;-1.050;2023-06-14T14:40:43;6.78;;;6.07;;
18568;SDS011;14780;48.316;-1.050;2023-06-14T14:43:28;8.63;;;6.65;;
18568;SDS011;14780;48.316;-1.050;2023-06-14T14:46:14;7.88;;;6.38;;
18568;SDS011;14780;48.316;-1.050;2023-06-14T14:49:00;7.25;;;6.53;;
18568;SDS011;14780;48.316;-1.050;2023-06-14T14:51:45;8.98;;;6.22;;
18568;SDS011;14780;48.316;-1.050;2023-06-14T14:54:30;10.57;;;6.50;;
18568;SDS011;14780;48.316;-1.050;2023-06-14T14:57:14;8.23;;;6.40;;
18568;SDS011;14780;48.316;-1.050;2023-06-14T14:59:59;8.95;;;6.60;;
18568;SDS011;14780;48.316;-1.050;2023-06-14T15:02:43;8.27;;;6.15;;
18568;SDS011;14780;48.316;-1.050;2023-06-14T15:05:28;7.45;;;5.80;;
18568;SDS011;14780;48.316;-1.050;2023-06-14T15:08:13;10.15;;;6.28;;
18568;SDS011;14780;48.316;-1.050;2023-06-14T15:10:58;8.38;;;6.18;;
18568;SDS011;14780;48.316;-1.050;2023-06-14T15:13:42;6.43;;;5.65;;
18568;SDS011;14780;48.316;-1.050;2023-06-14T15:16:27;6.53;;;5.82;;
18568;SDS011;14780;48.316;-1.050;2023-06-14T15:19:11;11.10;;;6.72;;
18568;SDS011;14780;48.316;-1.050;2023-06-14T15:21:56;7.63;;;6.05;;
18568;SDS011;14780;48.316;-1.050;2023-06-14T15:24:42;7.03;;;5.68;;
18568;SDS011;14780;48.316;-1.050;2023-06-14T15:27:27;8.02;;;6.00;;
18568;SDS011;14780;48.316;-1.050;2023-06-14T15:30:12;8.90;;;6.53;;
18568;SDS011;14780;48.316;-1.050;2023-06-14T15:32:57;8.50;;;6.07;;
18568;SDS011;14780;48.316;-1.050;2023-06-14T15:35:42;7.05;;;5.97;;
18568;SDS011;14780;48.316;-1.050;2023-06-14T15:38:27;8.63;;;6.03;;
18568;SDS011;14780;48.316;-1.050;2023-06-14T15:41:11;6.45;;;5.68;;
18568;SDS011;14780;48.316;-1.050;2023-06-14T15:43:56;6.90;;;6.00;;
18568;SDS011;14780;48.316;-1.050;2023-06-14T15:46:41;7.53;;;6.05;;
18568;SDS011;14780;48.316;-1.050;2023-06-14T15:49:25;7.13;;;6.32;;
18568;SDS011;14780;48.316;-1.050;2023-06-14T15:52:10;9.30;;;6.30;;
18568;SDS011;14780;48.316;-1.050;2023-06-14T15:54:54;6.97;;;5.45;;
18568;SDS011;14780;48.316;-1.050;2023-06-14T15:57:39;6.57;;;5.65;;
18568;SDS011;14780;48.316;-1.050;2023-06-14T16:00:24;6.57;;;5.60;;
18568;SDS011;14780;48.316;-1.050;2023-06-14T16:03:09;6.32;;;5.63;;
18568;SDS011;14780;48.316;-1.050;2023-06-14T16:05:54;6.30;;;5.50;;
18568;SDS011;14780;48.316;-1.050;2023-06-14T16:08:39;6.38;;;5.70;;
18568;SDS011;14780;48.316;-1.050;2023-06-14T16:11:24;7.80;;;5.97;;
18568;SDS011;14780;48.316;-1.050;2023-06-14T16:14:08;7.55;;;6.35;;
18568;SDS011;14780;48.316;-1.050;2023-06-14T16:16:53;7.40;;;5.90;;
18568;SDS011;14780;48.316;-1.050;2023-06-14T16:19:38;6.38;;;5.65;;
18568;SDS011;14780;48.316;-1.050;2023-06-14T16:22:23;7.35;;;5.30;;
18568;SDS011;14780;48.316;-1.050;2023-06-14T16:25:08;5.93;;;5.32;;
18568;SDS011;14780;48.316;-1.050;2023-06-14T16:27:53;8.60;;;6.30;;
18568;SDS011;14780;48.316;-1.050;2023-06-14T16:30:38;6.80;;;5.07;;
18568;SDS011;14780;48.316;-1.050;2023-06-14T16:33:23;7.85;;;5.63;;